Hafnia Bering — 9V3278 — position and weather

sailwx.info

Track history (hours):
 
Tides and Currents Weather Stations Pressure Air Temp Water Temp Dewpoint Dewpoint Depression Visibility Wind Speed Wind Dir Waves Ship Positions

Hafnia Bering

Last reported at 2017-Oct-17 23:27 UTC. Time now 2017-Oct-17 23:54 UTC.
Position N 59°57' E 028°37'.

Length 184 m; draft 6.9 m.

Type: Ship (hazmat cat A). MMSI: 566255000.

Date/timePositionNaut miles runAvg speedWind from/ knotsBaromVisibWave heightAir tempDewpointWater temp
2017-Oct-17 23:27N 59°57' E 028°37'0 0.0
2017-Oct-17 22:57N 59°57' E 028°37'0 0.0
2017-Oct-17 22:30N 59°57' E 028°37'0 0.0
2017-Oct-17 22:00N 59°57' E 028°37'0 0.1
2017-Oct-17 21:24N 59°57' E 028°37'0 0.1
2017-Oct-17 20:58N 59°57' E 028°37'0 0.0
2017-Oct-17 20:24N 59°57' E 028°37'0 0.0
2017-Oct-17 19:59N 59°57' E 028°37'0 0.1
2017-Oct-17 19:30N 59°57' E 028°37'0 0.0
2017-Oct-17 19:00N 59°57' E 028°37'0 0.1
2017-Oct-17 18:30N 59°57' E 028°37'0 0.0
2017-Oct-17 18:00N 59°57' E 028°36'0 0.0
2017-Oct-17 17:30N 59°57' E 028°37'0 0.0
2017-Oct-17 17:00N 59°57' E 028°36'0 0.0
2017-Oct-17 16:30N 59°57' E 028°37'0 0.0
2017-Oct-17 16:00N 59°57' E 028°36'0 0.0
2017-Oct-17 15:30N 59°57' E 028°37'0 0.0
2017-Oct-17 15:00N 59°57' E 028°37'0 0.4
2017-Oct-17 14:30N 59°57' E 028°37'2 3.5
2017-Oct-17 14:01N 59°59' E 028°38'3 5.9
2017-Oct-17 13:31N 60°02' E 028°36'5 9.2
2017-Oct-17 13:01N 60°03' E 028°27'5 9.9
2017-Oct-17 12:31N 60°06' E 028°19'510.0
2017-Oct-17 12:01N 60°08' E 028°10'510.3
2017-Oct-17 11:31N 60°09' E 027°60'5 9.9
2017-Oct-17 11:01N 60°10' E 027°50'5 9.5
2017-Oct-17 10:30N 60°09' E 027°41'5 9.9
2017-Oct-17 10:00N 60°06' E 027°32'5 9.8
2017-Oct-17 09:31N 60°04' E 027°24'5 9.8
2017-Oct-17 09:00N 60°01' E 027°16'5 9.7
2017-Oct-17 08:30N 59°59' E 027°07'510.3
2017-Oct-17 08:01N 59°58' E 026°57'510.0
2017-Oct-17 07:30N 59°59' E 026°47'5 9.9
2017-Oct-17 07:00N 59°59' E 026°37'510.1
2017-Oct-17 06:30N 59°58' E 026°28'510.0
2017-Oct-17 06:00N 59°56' E 026°18'3010.0
2017-Oct-17 03:01N 59°49' E 025°20'3 9.7
2017-Oct-17 02:42N 59°48' E 025°14'2 9.7
2017-Oct-17 02:30N 59°48' E 025°11'510.1
2017-Oct-17 02:00N 59°47' E 025°01'510.1
2017-Oct-17 01:30N 59°45' E 024°51'510.0
2017-Oct-17 01:00N 59°44' E 024°41'5 9.8
2017-Oct-17 00:30N 59°42' E 024°33'5 9.9
2017-Oct-17 00:00N 59°39' E 024°25'5 9.6
2017-Oct-16 23:30N 59°34' E 024°24'5 9.2
2017-Oct-16 23:00N 59°31' E 024°30'2 3.4
2017-Oct-16 22:30N 59°29' E 024°31'0 0.2
2017-Oct-16 21:59N 59°29' E 024°31'0 0.1
2017-Oct-16 21:29N 59°29' E 024°31'0 0.1
2017-Oct-16 20:59N 59°29' E 024°31'0 0.0
2017-Oct-16 20:29N 59°29' E 024°31'0 0.1
2017-Oct-16 19:59N 59°29' E 024°31'0 0.1
2017-Oct-16 19:29N 59°29' E 024°31'0 0.0
2017-Oct-16 18:59N 59°29' E 024°31'0 0.1
2017-Oct-16 18:29N 59°29' E 024°31'0 0.0
2017-Oct-16 17:59N 59°29' E 024°31'0 0.1
2017-Oct-16 17:29N 59°29' E 024°31'0 0.1
2017-Oct-16 16:59N 59°29' E 024°31'0 0.0
2017-Oct-16 16:29N 59°29' E 024°31'1 1.3
2017-Oct-16 16:00N 59°30' E 024°30'4 7.1
2017-Oct-16 15:30N 59°30' E 024°23'4 7.5
2017-Oct-16 15:00N 59°30' E 024°16'5 9.8
2017-Oct-16 14:30N 59°30' E 024°06'11 9.9
2017-Oct-16 13:27N 59°29' E 023°46'510.1
2017-Oct-16 12:56N 59°28' E 023°35'510.0
2017-Oct-16 12:27N 59°28' E 023°26'510.3
2017-Oct-16 12:00N 59°27' E 023°17'6 9.8
2017-Oct-16 11:27N 59°26' E 023°06'72 9.7
2017-Oct-16 04:01N 58°42' E 021°16'1 9.5
2017-Oct-16 03:56N 58°42' E 021°15'202 9.8
2017-Oct-15 07:27N 55°56' E 017°43'9 9.9
2017-Oct-15 06:32N 55°54' E 017°27'1 9.8
2017-Oct-15 06:28N 55°53' E 017°26'510.0
2017-Oct-15 05:57N 55°52' E 017°17'510.2
2017-Oct-15 05:28N 55°51' E 017°09'510.0
2017-Oct-15 05:00N 55°50' E 017°01'510.0
2017-Oct-15 04:30N 55°49' E 016°52'510.0
2017-Oct-15 04:00N 55°47' E 016°44'510.0
2017-Oct-15 03:30N 55°46' E 016°35'5 9.9
2017-Oct-15 03:00N 55°44' E 016°27'5 9.5
2017-Oct-15 02:30N 55°44' E 016°18'510.1
2017-Oct-15 02:00N 55°43' E 016°10'510.0
2017-Oct-15 01:30N 55°41' E 016°01'510.1
2017-Oct-15 01:00N 55°40' E 015°53'510.0
2017-Oct-15 00:30N 55°39' E 015°44'510.0
2017-Oct-15 00:00N 55°38' E 015°35'5 9.8
2017-Oct-14 23:30N 55°37' E 015°27'5 9.9
2017-Oct-14 23:00N 55°34' E 015°19'510.0
2017-Oct-14 22:30N 55°32' E 015°11'510.1
2017-Oct-14 22:00N 55°30' E 015°03'510.6
2017-Oct-14 21:30N 55°28' E 014°54'510.6
2017-Oct-14 21:00N 55°26' E 014°46'511.0
2017-Oct-14 20:30N 55°22' E 014°38'510.6
2017-Oct-14 20:00N 55°18' E 014°33'510.6
2017-Oct-14 19:30N 55°14' E 014°27'611.0
2017-Oct-14 19:00N 55°11' E 014°19'611.5
2017-Oct-14 18:30N 55°11' E 014°09'811.7
2017-Oct-14 17:50N 55°11' E 013°55'412.5
2017-Oct-14 17:30N 55°11' E 013°47'1510.7
2017-Oct-14 16:03N 55°12' E 013°21'010.5
2017-Oct-14 16:00N 55°12' E 013°20'510.5
2017-Oct-14 15:30N 55°13' E 013°11'510.5
2017-Oct-14 15:00N 55°13' E 013°01'510.4
2017-Oct-14 14:30N 55°14' E 012°53'611.3
2017-Oct-14 14:00N 55°16' E 012°43'5 9.2
2017-Oct-14 13:30N 55°20' E 012°39'4 8.1
2017-Oct-14 13:00N 55°24' E 012°39'510.8
2017-Oct-14 12:30N 55°29' E 012°42'4 8.9
2017-Oct-14 12:00N 55°33' E 012°47'5 9.7
2017-Oct-14 11:30N 55°37' E 012°53'5 9.5
2017-Oct-14 11:00N 55°39' E 013°00'1 1.3
2017-Oct-14 10:25N 55°38' E 013°01'0 0.0
2017-Oct-14 09:55N 55°38' E 013°01'0 0.0
2017-Oct-14 09:25N 55°38' E 013°01'0 0.0
2017-Oct-14 08:55N 55°38' E 013°01'0 0.0
2017-Oct-14 08:28N 55°38' E 013°01'0 0.0
2017-Oct-14 07:58N 55°38' E 013°01'0 0.0
2017-Oct-14 07:22N 55°38' E 013°01'0 0.0
2017-Oct-14 06:58N 55°38' E 013°01'0 0.0
2017-Oct-14 06:28N 55°38' E 013°01'0 0.0
2017-Oct-14 05:58N 55°38' E 013°01'0 0.0
2017-Oct-14 05:28N 55°38' E 013°01'0 0.0
2017-Oct-14 04:58N 55°38' E 013°01'0 0.0
2017-Oct-14 04:28N 55°38' E 013°01'0 0.0
2017-Oct-14 03:58N 55°38' E 013°01'0 0.0
2017-Oct-14 03:25N 55°38' E 013°01'0 0.0
2017-Oct-14 02:58N 55°38' E 013°01'0 0.0
2017-Oct-14 02:25N 55°38' E 013°01'0 0.0
2017-Oct-14 01:52N 55°38' E 013°01'0 0.0
2017-Oct-14 01:28N 55°38' E 013°01'0 0.0
2017-Oct-14 00:55N 55°38' E 013°01'0 0.0
2017-Oct-14 00:16N 55°38' E 013°01'0 0.0
2017-Oct-13 23:55N 55°38' E 013°01'0 0.0
2017-Oct-13 23:25N 55°38' E 013°01'0 0.0
2017-Oct-13 22:43N 55°38' E 013°01'0 0.0
2017-Oct-13 22:28N 55°38' E 013°01'0 0.0
2017-Oct-13 21:46N 55°38' E 013°01'0 0.0
2017-Oct-13 21:25N 55°38' E 013°01'0 0.0
2017-Oct-13 20:58N 55°38' E 013°01'0 0.0
2017-Oct-13 20:28N 55°38' E 013°01'0 0.0
2017-Oct-13 19:58N 55°38' E 013°01'0 0.0
2017-Oct-13 19:28N 55°38' E 013°01'0 0.0
2017-Oct-13 18:58N 55°38' E 013°01'0 0.0
2017-Oct-13 18:28N 55°38' E 013°01'0 0.0
2017-Oct-13 17:58N 55°38' E 013°01'0 0.0
2017-Oct-13 17:28N 55°38' E 013°01'0 0.0
2017-Oct-13 16:55N 55°38' E 013°01'0 0.0
2017-Oct-13 16:28N 55°38' E 013°01'0 0.0
2017-Oct-13 15:52N 55°38' E 013°01'0 0.0
2017-Oct-13 15:22N 55°38' E 013°01'0 0.0
2017-Oct-13 14:58N 55°38' E 013°01'0 0.0
2017-Oct-13 14:25N 55°38' E 013°01'0 0.0
2017-Oct-13 13:46N 55°38' E 013°01'0 0.0
2017-Oct-13 13:28N 55°38' E 013°01'0 0.0
2017-Oct-13 12:58N 55°38' E 013°01'0 0.0
2017-Oct-13 12:28N 55°38' E 013°01'0 0.0
2017-Oct-13 11:58N 55°38' E 013°01'0 0.0
2017-Oct-13 11:28N 55°38' E 013°01'0 0.0
2017-Oct-13 10:58N 55°38' E 013°01'0 0.0
2017-Oct-13 10:25N 55°38' E 013°01'0 0.0
2017-Oct-13 09:55N 55°38' E 013°01'0 0.0
2017-Oct-13 09:28N 55°38' E 013°01'0 0.0
2017-Oct-13 08:43N 55°38' E 013°01'0 0.0
2017-Oct-13 08:28N 55°38' E 013°01'0 0.0
2017-Oct-13 07:52N 55°38' E 013°01'0 0.0
2017-Oct-13 07:28N 55°38' E 013°01'0 0.0
2017-Oct-13 06:46N 55°38' E 013°01'0 0.0
2017-Oct-13 06:25N 55°38' E 013°01'0 0.0
2017-Oct-13 05:58N 55°38' E 013°01'0 0.0
2017-Oct-13 05:28N 55°38' E 013°01'0 0.0
2017-Oct-13 04:46N 55°38' E 013°01'0 0.0
2017-Oct-13 04:16N 55°38' E 013°01'0 0.0
2017-Oct-13 03:58N 55°38' E 013°01'0 0.0
2017-Oct-13 03:19N 55°38' E 013°01'0 0.0
2017-Oct-13 02:58N 55°38' E 013°01'0 0.0
2017-Oct-13 02:25N 55°38' E 013°01'0 0.0
2017-Oct-13 01:55N 55°38' E 013°01'0 0.0
2017-Oct-13 01:25N 55°38' E 013°01'0 0.0
2017-Oct-13 00:55N 55°38' E 013°01'0 0.0
2017-Oct-13 00:16N 55°38' E 013°01'0 0.0
2017-Oct-12 23:58N 55°38' E 013°01'0 0.0
2017-Oct-12 23:28N 55°38' E 013°01'0 0.0
2017-Oct-12 22:55N 55°38' E 013°01'0 0.0
2017-Oct-12 22:28N 55°38' E 013°01'0 0.0
2017-Oct-12 21:58N 55°38' E 013°01'0 0.0
2017-Oct-12 21:19N 55°38' E 013°01'0 0.0
2017-Oct-12 20:55N 55°38' E 013°01'0 0.0
2017-Oct-12 20:28N 55°38' E 013°01'0 0.0
2017-Oct-12 19:58N 55°38' E 013°01'0 0.0
2017-Oct-12 19:25N 55°38' E 013°01'0 0.0
2017-Oct-12 18:55N 55°38' E 013°01'0 0.0
2017-Oct-12 18:28N 55°38' E 013°01'0 0.0
2017-Oct-12 17:34N 55°38' E 013°01'0 0.0
2017-Oct-12 17:28N 55°38' E 013°01'0 0.0
2017-Oct-12 16:58N 55°38' E 013°01'0 0.0
2017-Oct-12 16:28N 55°38' E 013°01'0 0.0
2017-Oct-12 15:58N 55°38' E 013°01'0 0.0
2017-Oct-12 15:28N 55°38' E 013°01'0 0.0
2017-Oct-12 14:55N 55°38' E 013°01'0 0.0
2017-Oct-12 14:28N 55°38' E 013°01'0 0.0
2017-Oct-12 13:55N 55°38' E 013°01'0 0.0
2017-Oct-12 13:28N 55°38' E 013°01'0 0.0
2017-Oct-12 12:40N 55°38' E 013°01'0 0.0
2017-Oct-12 12:28N 55°38' E 013°01'0 0.0
2017-Oct-12 11:55N 55°38' E 013°01'0 0.0
2017-Oct-12 11:28N 55°38' E 013°01'0 0.5
2017-Oct-12 11:00N 55°38' E 013°01'3 6.8
2017-Oct-12 10:30N 55°41' E 012°56'1 2.1
2017-Oct-12 09:59N 55°42' E 012°55'0 0.1
2017-Oct-12 09:29N 55°42' E 012°56'0 0.0
2017-Oct-12 08:59N 55°42' E 012°56'0 0.0
2017-Oct-12 08:29N 55°42' E 012°56'0 0.0
2017-Oct-12 07:59N 55°42' E 012°56'0 0.0
2017-Oct-12 07:29N 55°42' E 012°56'0 0.0
2017-Oct-12 06:59N 55°42' E 012°56'0 0.0
2017-Oct-12 06:29N 55°42' E 012°56'0 0.0
2017-Oct-12 05:59N 55°42' E 012°56'0 0.2
2017-Oct-12 05:31N 55°42' E 012°55'1 2.9
2017-Oct-12 05:01N 55°43' E 012°54'2 4.5
2017-Oct-12 04:31N 55°45' E 012°53'2 5.0
2017-Oct-12 04:01N 55°47' E 012°51'510.2
2017-Oct-12 03:31N 55°50' E 012°43'5 9.6
2017-Oct-12 03:01N 55°54' E 012°39'510.6
2017-Oct-12 02:30N 55°59' E 012°40'510.6
2017-Oct-12 02:01N 56°04' E 012°37'510.2
2017-Oct-12 01:31N 56°07' E 012°30'510.5
2017-Oct-12 01:00N 56°10' E 012°22'611.4
2017-Oct-12 00:29N 56°12' E 012°12'63 9.0
2017-Oct-11 17:33N 55°23' E 011°01'211.3
2017-Oct-11 17:21N 55°21' E 011°02'411.4
2017-Oct-11 16:57N 55°16' E 011°04'118 6.9
2017-Oct-10 23:59N 55°24' E 014°31'511.0
2017-Oct-10 23:31N 55°27' E 014°38'611.3
2017-Oct-10 23:00N 55°30' E 014°47'611.3
2017-Oct-10 22:29N 55°32' E 014°56'611.3
2017-Oct-10 21:59N 55°35' E 015°05'511.2
2017-Oct-10 21:31N 55°37' E 015°14'611.3
2017-Oct-10 21:00N 55°38' E 015°23'611.4
2017-Oct-10 20:31N 55°39' E 015°33'611.6
2017-Oct-10 20:00N 55°41' E 015°43'611.8
2017-Oct-10 19:30N 55°43' E 015°53'611.8
2017-Oct-10 19:00N 55°45' E 016°03'611.7
2017-Oct-10 18:30N 55°46' E 016°13'611.5
2017-Oct-10 18:01N 55°48' E 016°23'611.4
2017-Oct-10 17:30N 55°49' E 016°33'611.4
2017-Oct-10 17:00N 55°51' E 016°43'  
Track history (hours):
 
Tides and Currents Weather Stations Pressure Air Temp Water Temp Dewpoint Dewpoint Depression Visibility Wind Speed Wind Dir Waves Ship Positions

Hafnia Bering

Last reported at 2017-Oct-17 23:27 UTC. Time now 2017-Oct-17 23:54 UTC.
Position N 59°57' E 028°37'.

Length 184 m; draft 6.9 m.

Type: Ship (hazmat cat A). MMSI: 566255000.

Date/timePositionNaut miles runAvg speedWind from/ knotsBaromVisibWave heightAir tempDewpointWater temp
2017-Oct-17 23:27N 59°57' E 028°37'0 0.0
2017-Oct-17 22:57N 59°57' E 028°37'0 0.0
2017-Oct-17 22:30N 59°57' E 028°37'0 0.0
2017-Oct-17 22:00N 59°57' E 028°37'0 0.1
2017-Oct-17 21:24N 59°57' E 028°37'0 0.1
2017-Oct-17 20:58N 59°57' E 028°37'0 0.0
2017-Oct-17 20:24N 59°57' E 028°37'0 0.0
2017-Oct-17 19:59N 59°57' E 028°37'0 0.1
2017-Oct-17 19:30N 59°57' E 028°37'0 0.0
2017-Oct-17 19:00N 59°57' E 028°37'0 0.1
2017-Oct-17 18:30N 59°57' E 028°37'0 0.0
2017-Oct-17 18:00N 59°57' E 028°36'0 0.0
2017-Oct-17 17:30N 59°57' E 028°37'0 0.0
2017-Oct-17 17:00N 59°57' E 028°36'0 0.0
2017-Oct-17 16:30N 59°57' E 028°37'0 0.0
2017-Oct-17 16:00N 59°57' E 028°36'0 0.0
2017-Oct-17 15:30N 59°57' E 028°37'0 0.0
2017-Oct-17 15:00N 59°57' E 028°37'0 0.4
2017-Oct-17 14:30N 59°57' E 028°37'2 3.5
2017-Oct-17 14:01N 59°59' E 028°38'3 5.9
2017-Oct-17 13:31N 60°02' E 028°36'5 9.2
2017-Oct-17 13:01N 60°03' E 028°27'5 9.9
2017-Oct-17 12:31N 60°06' E 028°19'510.0
2017-Oct-17 12:01N 60°08' E 028°10'510.3
2017-Oct-17 11:31N 60°09' E 027°60'5 9.9
2017-Oct-17 11:01N 60°10' E 027°50'5 9.5
2017-Oct-17 10:30N 60°09' E 027°41'5 9.9
2017-Oct-17 10:00N 60°06' E 027°32'5 9.8
2017-Oct-17 09:31N 60°04' E 027°24'5 9.8
2017-Oct-17 09:00N 60°01' E 027°16'5 9.7
2017-Oct-17 08:30N 59°59' E 027°07'510.3
2017-Oct-17 08:01N 59°58' E 026°57'510.0
2017-Oct-17 07:30N 59°59' E 026°47'5 9.9
2017-Oct-17 07:00N 59°59' E 026°37'510.1
2017-Oct-17 06:30N 59°58' E 026°28'510.0
2017-Oct-17 06:00N 59°56' E 026°18'3010.0
2017-Oct-17 03:01N 59°49' E 025°20'3 9.7
2017-Oct-17 02:42N 59°48' E 025°14'2 9.7
2017-Oct-17 02:30N 59°48' E 025°11'510.1
2017-Oct-17 02:00N 59°47' E 025°01'510.1
2017-Oct-17 01:30N 59°45' E 024°51'510.0
2017-Oct-17 01:00N 59°44' E 024°41'5 9.8
2017-Oct-17 00:30N 59°42' E 024°33'5 9.9
2017-Oct-17 00:00N 59°39' E 024°25'5 9.6
2017-Oct-16 23:30N 59°34' E 024°24'5 9.2
2017-Oct-16 23:00N 59°31' E 024°30'2 3.4
2017-Oct-16 22:30N 59°29' E 024°31'0 0.2
2017-Oct-16 21:59N 59°29' E 024°31'0 0.1
2017-Oct-16 21:29N 59°29' E 024°31'0 0.1
2017-Oct-16 20:59N 59°29' E 024°31'0 0.0
2017-Oct-16 20:29N 59°29' E 024°31'0 0.1
2017-Oct-16 19:59N 59°29' E 024°31'0 0.1
2017-Oct-16 19:29N 59°29' E 024°31'0 0.0
2017-Oct-16 18:59N 59°29' E 024°31'0 0.1
2017-Oct-16 18:29N 59°29' E 024°31'0 0.0
2017-Oct-16 17:59N 59°29' E 024°31'0 0.1
2017-Oct-16 17:29N 59°29' E 024°31'0 0.1
2017-Oct-16 16:59N 59°29' E 024°31'0 0.0
2017-Oct-16 16:29N 59°29' E 024°31'1 1.3
2017-Oct-16 16:00N 59°30' E 024°30'4 7.1
2017-Oct-16 15:30N 59°30' E 024°23'4 7.5
2017-Oct-16 15:00N 59°30' E 024°16'5 9.8
2017-Oct-16 14:30N 59°30' E 024°06'11 9.9
2017-Oct-16 13:27N 59°29' E 023°46'510.1
2017-Oct-16 12:56N 59°28' E 023°35'510.0
2017-Oct-16 12:27N 59°28' E 023°26'510.3
2017-Oct-16 12:00N 59°27' E 023°17'6 9.8
2017-Oct-16 11:27N 59°26' E 023°06'72 9.7
2017-Oct-16 04:01N 58°42' E 021°16'1 9.5
2017-Oct-16 03:56N 58°42' E 021°15'202 9.8
2017-Oct-15 07:27N 55°56' E 017°43'9 9.9
2017-Oct-15 06:32N 55°54' E 017°27'1 9.8
2017-Oct-15 06:28N 55°53' E 017°26'510.0
2017-Oct-15 05:57N 55°52' E 017°17'510.2
2017-Oct-15 05:28N 55°51' E 017°09'510.0
2017-Oct-15 05:00N 55°50' E 017°01'510.0
2017-Oct-15 04:30N 55°49' E 016°52'510.0
2017-Oct-15 04:00N 55°47' E 016°44'510.0
2017-Oct-15 03:30N 55°46' E 016°35'5 9.9
2017-Oct-15 03:00N 55°44' E 016°27'5 9.5
2017-Oct-15 02:30N 55°44' E 016°18'510.1
2017-Oct-15 02:00N 55°43' E 016°10'510.0
2017-Oct-15 01:30N 55°41' E 016°01'510.1
2017-Oct-15 01:00N 55°40' E 015°53'510.0
2017-Oct-15 00:30N 55°39' E 015°44'510.0
2017-Oct-15 00:00N 55°38' E 015°35'5 9.8
2017-Oct-14 23:30N 55°37' E 015°27'5 9.9
2017-Oct-14 23:00N 55°34' E 015°19'510.0
2017-Oct-14 22:30N 55°32' E 015°11'510.1
2017-Oct-14 22:00N 55°30' E 015°03'510.6
2017-Oct-14 21:30N 55°28' E 014°54'510.6
2017-Oct-14 21:00N 55°26' E 014°46'511.0
2017-Oct-14 20:30N 55°22' E 014°38'510.6
2017-Oct-14 20:00N 55°18' E 014°33'510.6
2017-Oct-14 19:30N 55°14' E 014°27'611.0
2017-Oct-14 19:00N 55°11' E 014°19'611.5
2017-Oct-14 18:30N 55°11' E 014°09'811.7
2017-Oct-14 17:50N 55°11' E 013°55'412.5
2017-Oct-14 17:30N 55°11' E 013°47'1510.7
2017-Oct-14 16:03N 55°12' E 013°21'010.5
2017-Oct-14 16:00N 55°12' E 013°20'510.5
2017-Oct-14 15:30N 55°13' E 013°11'510.5
2017-Oct-14 15:00N 55°13' E 013°01'510.4
2017-Oct-14 14:30N 55°14' E 012°53'611.3
2017-Oct-14 14:00N 55°16' E 012°43'5 9.2
2017-Oct-14 13:30N 55°20' E 012°39'4 8.1
2017-Oct-14 13:00N 55°24' E 012°39'510.8
2017-Oct-14 12:30N 55°29' E 012°42'4 8.9
2017-Oct-14 12:00N 55°33' E 012°47'5 9.7
2017-Oct-14 11:30N 55°37' E 012°53'5 9.5
2017-Oct-14 11:00N 55°39' E 013°00'1 1.3
2017-Oct-14 10:25N 55°38' E 013°01'0 0.0
2017-Oct-14 09:55N 55°38' E 013°01'0 0.0
2017-Oct-14 09:25N 55°38' E 013°01'0 0.0
2017-Oct-14 08:55N 55°38' E 013°01'0 0.0
2017-Oct-14 08:28N 55°38' E 013°01'0 0.0
2017-Oct-14 07:58N 55°38' E 013°01'0 0.0
2017-Oct-14 07:22N 55°38' E 013°01'0 0.0
2017-Oct-14 06:58N 55°38' E 013°01'0 0.0
2017-Oct-14 06:28N 55°38' E 013°01'0 0.0
2017-Oct-14 05:58N 55°38' E 013°01'0 0.0
2017-Oct-14 05:28N 55°38' E 013°01'0 0.0
2017-Oct-14 04:58N 55°38' E 013°01'0 0.0
2017-Oct-14 04:28N 55°38' E 013°01'0 0.0
2017-Oct-14 03:58N 55°38' E 013°01'0 0.0
2017-Oct-14 03:25N 55°38' E 013°01'0 0.0
2017-Oct-14 02:58N 55°38' E 013°01'0 0.0
2017-Oct-14 02:25N 55°38' E 013°01'0 0.0
2017-Oct-14 01:52N 55°38' E 013°01'0 0.0
2017-Oct-14 01:28N 55°38' E 013°01'0 0.0
2017-Oct-14 00:55N 55°38' E 013°01'0 0.0
2017-Oct-14 00:16N 55°38' E 013°01'0 0.0
2017-Oct-13 23:55N 55°38' E 013°01'0 0.0
2017-Oct-13 23:25N 55°38' E 013°01'0 0.0
2017-Oct-13 22:43N 55°38' E 013°01'0 0.0
2017-Oct-13 22:28N 55°38' E 013°01'0 0.0
2017-Oct-13 21:46N 55°38' E 013°01'0 0.0
2017-Oct-13 21:25N 55°38' E 013°01'0 0.0
2017-Oct-13 20:58N 55°38' E 013°01'0 0.0
2017-Oct-13 20:28N 55°38' E 013°01'0 0.0
2017-Oct-13 19:58N 55°38' E 013°01'0 0.0
2017-Oct-13 19:28N 55°38' E 013°01'0 0.0
2017-Oct-13 18:58N 55°38' E 013°01'0 0.0
2017-Oct-13 18:28N 55°38' E 013°01'0 0.0
2017-Oct-13 17:58N 55°38' E 013°01'0 0.0
2017-Oct-13 17:28N 55°38' E 013°01'0 0.0
2017-Oct-13 16:55N 55°38' E 013°01'0 0.0
2017-Oct-13 16:28N 55°38' E 013°01'0 0.0
2017-Oct-13 15:52N 55°38' E 013°01'0 0.0
2017-Oct-13 15:22N 55°38' E 013°01'0 0.0
2017-Oct-13 14:58N 55°38' E 013°01'0 0.0
2017-Oct-13 14:25N 55°38' E 013°01'0 0.0
2017-Oct-13 13:46N 55°38' E 013°01'0 0.0
2017-Oct-13 13:28N 55°38' E 013°01'0 0.0
2017-Oct-13 12:58N 55°38' E 013°01'0 0.0
2017-Oct-13 12:28N 55°38' E 013°01'0 0.0
2017-Oct-13 11:58N 55°38' E 013°01'0 0.0
2017-Oct-13 11:28N 55°38' E 013°01'0 0.0
2017-Oct-13 10:58N 55°38' E 013°01'0 0.0
2017-Oct-13 10:25N 55°38' E 013°01'0 0.0
2017-Oct-13 09:55N 55°38' E 013°01'0 0.0
2017-Oct-13 09:28N 55°38' E 013°01'0 0.0
2017-Oct-13 08:43N 55°38' E 013°01'0 0.0
2017-Oct-13 08:28N 55°38' E 013°01'0 0.0
2017-Oct-13 07:52N 55°38' E 013°01'0 0.0
2017-Oct-13 07:28N 55°38' E 013°01'0 0.0
2017-Oct-13 06:46N 55°38' E 013°01'0 0.0
2017-Oct-13 06:25N 55°38' E 013°01'0 0.0
2017-Oct-13 05:58N 55°38' E 013°01'0 0.0
2017-Oct-13 05:28N 55°38' E 013°01'0 0.0
2017-Oct-13 04:46N 55°38' E 013°01'0 0.0
2017-Oct-13 04:16N 55°38' E 013°01'0 0.0
2017-Oct-13 03:58N 55°38' E 013°01'0 0.0
2017-Oct-13 03:19N 55°38' E 013°01'0 0.0
2017-Oct-13 02:58N 55°38' E 013°01'0 0.0
2017-Oct-13 02:25N 55°38' E 013°01'0 0.0
2017-Oct-13 01:55N 55°38' E 013°01'0 0.0
2017-Oct-13 01:25N 55°38' E 013°01'0 0.0
2017-Oct-13 00:55N 55°38' E 013°01'0 0.0
2017-Oct-13 00:16N 55°38' E 013°01'0 0.0
2017-Oct-12 23:58N 55°38' E 013°01'0 0.0
2017-Oct-12 23:28N 55°38' E 013°01'0 0.0
2017-Oct-12 22:55N 55°38' E 013°01'0 0.0
2017-Oct-12 22:28N 55°38' E 013°01'0 0.0
2017-Oct-12 21:58N 55°38' E 013°01'0 0.0
2017-Oct-12 21:19N 55°38' E 013°01'0 0.0
2017-Oct-12 20:55N 55°38' E 013°01'0 0.0
2017-Oct-12 20:28N 55°38' E 013°01'0 0.0
2017-Oct-12 19:58N 55°38' E 013°01'0 0.0
2017-Oct-12 19:25N 55°38' E 013°01'0 0.0
2017-Oct-12 18:55N 55°38' E 013°01'0 0.0
2017-Oct-12 18:28N 55°38' E 013°01'0 0.0
2017-Oct-12 17:34N 55°38' E 013°01'0 0.0
2017-Oct-12 17:28N 55°38' E 013°01'0 0.0
2017-Oct-12 16:58N 55°38' E 013°01'0 0.0
2017-Oct-12 16:28N 55°38' E 013°01'0 0.0
2017-Oct-12 15:58N 55°38' E 013°01'0 0.0
2017-Oct-12 15:28N 55°38' E 013°01'0 0.0
2017-Oct-12 14:55N 55°38' E 013°01'0 0.0
2017-Oct-12 14:28N 55°38' E 013°01'0 0.0
2017-Oct-12 13:55N 55°38' E 013°01'0 0.0
2017-Oct-12 13:28N 55°38' E 013°01'0 0.0
2017-Oct-12 12:40N 55°38' E 013°01'0 0.0
2017-Oct-12 12:28N 55°38' E 013°01'0 0.0
2017-Oct-12 11:55N 55°38' E 013°01'0 0.0
2017-Oct-12 11:28N 55°38' E 013°01'0 0.5
2017-Oct-12 11:00N 55°38' E 013°01'3 6.8
2017-Oct-12 10:30N 55°41' E 012°56'1 2.1
2017-Oct-12 09:59N 55°42' E 012°55'0 0.1
2017-Oct-12 09:29N 55°42' E 012°56'0 0.0
2017-Oct-12 08:59N 55°42' E 012°56'0 0.0
2017-Oct-12 08:29N 55°42' E 012°56'0 0.0
2017-Oct-12 07:59N 55°42' E 012°56'0 0.0
2017-Oct-12 07:29N 55°42' E 012°56'0 0.0
2017-Oct-12 06:59N 55°42' E 012°56'0 0.0
2017-Oct-12 06:29N 55°42' E 012°56'0 0.0
2017-Oct-12 05:59N 55°42' E 012°56'0 0.2
2017-Oct-12 05:31N 55°42' E 012°55'1 2.9
2017-Oct-12 05:01N 55°43' E 012°54'2 4.5
2017-Oct-12 04:31N 55°45' E 012°53'2 5.0
2017-Oct-12 04:01N 55°47' E 012°51'510.2
2017-Oct-12 03:31N 55°50' E 012°43'5 9.6
2017-Oct-12 03:01N 55°54' E 012°39'510.6
2017-Oct-12 02:30N 55°59' E 012°40'510.6
2017-Oct-12 02:01N 56°04' E 012°37'510.2
2017-Oct-12 01:31N 56°07' E 012°30'510.5
2017-Oct-12 01:00N 56°10' E 012°22'611.4
2017-Oct-12 00:29N 56°12' E 012°12'63 9.0
2017-Oct-11 17:33N 55°23' E 011°01'211.3
2017-Oct-11 17:21N 55°21' E 011°02'411.4
2017-Oct-11 16:57N 55°16' E 011°04'118 6.9
2017-Oct-10 23:59N 55°24' E 014°31'511.0
2017-Oct-10 23:31N 55°27' E 014°38'611.3
2017-Oct-10 23:00N 55°30' E 014°47'611.3
2017-Oct-10 22:29N 55°32' E 014°56'611.3
2017-Oct-10 21:59N 55°35' E 015°05'511.2
2017-Oct-10 21:31N 55°37' E 015°14'611.3
2017-Oct-10 21:00N 55°38' E 015°23'611.4
2017-Oct-10 20:31N 55°39' E 015°33'611.6
2017-Oct-10 20:00N 55°41' E 015°43'611.8
2017-Oct-10 19:30N 55°43' E 015°53'611.8
2017-Oct-10 19:00N 55°45' E 016°03'611.7
2017-Oct-10 18:30N 55°46' E 016°13'611.5
2017-Oct-10 18:01N 55°48' E 016°23'611.4
2017-Oct-10 17:30N 55°49' E 016°33'611.4
2017-Oct-10 17:00N 55°51' E 016°43'  

Dump ship's entire track history